createdAt,value
2022-12-29T00:01:14.020Z,16.27
2022-12-29T00:03:42.297Z,16.42
2022-12-29T00:06:11.031Z,15.10
2022-12-29T00:08:42.025Z,15.32
2022-12-29T00:11:11.809Z,15.77
2022-12-29T00:13:57.698Z,16.45
2022-12-29T00:16:29.061Z,16.75
2022-12-29T00:18:57.452Z,17.45
2022-12-29T00:21:43.808Z,19.05
2022-12-29T00:24:32.458Z,18.08
2022-12-29T00:27:29.536Z,18.35
2022-12-29T00:30:15.550Z,17.90
2022-12-29T00:33:02.555Z,18.25
2022-12-29T00:35:33.983Z,18.27
2022-12-29T00:38:25.608Z,17.90
2022-12-29T00:41:11.232Z,19.65
2022-12-29T00:43:56.986Z,17.92
2022-12-29T00:46:25.289Z,18.75
2022-12-29T00:49:12.420Z,21.08
2022-12-29T00:51:40.744Z,20.15
2022-12-29T00:54:09.130Z,21.75
2022-12-29T00:56:37.747Z,21.15
2022-12-29T00:59:08.451Z,19.15
2022-12-29T01:01:37.852Z,18.83
2022-12-29T01:04:08.748Z,20.33
2022-12-29T01:06:38.546Z,19.48
2022-12-29T01:09:25.431Z,18.42
2022-12-29T01:11:54.183Z,18.55
2022-12-29T01:14:23.146Z,17.52
2022-12-29T01:16:51.711Z,18.38
2022-12-29T01:19:22.277Z,16.27
2022-12-29T01:21:51.230Z,17.58
2022-12-29T01:24:22.486Z,18.65
2022-12-29T01:26:51.064Z,15.90
2022-12-29T01:29:19.489Z,17.90
2022-12-29T01:31:47.797Z,16.73
2022-12-29T01:34:16.094Z,16.50
2022-12-29T01:36:46.199Z,17.00
2022-12-29T01:39:15.252Z,15.98
2022-12-29T01:41:44.683Z,15.98
2022-12-29T01:44:46.094Z,15.90
2022-12-29T01:47:15.453Z,16.65
2022-12-29T01:49:43.712Z,16.20
2022-12-29T01:52:13.421Z,14.98
2022-12-29T01:54:46.128Z,16.55
2022-12-29T01:57:18.709Z,14.40
2022-12-29T01:59:53.494Z,15.52
2022-12-29T02:02:21.993Z,17.30
2022-12-29T02:04:50.703Z,16.58
2022-12-29T02:07:23.297Z,16.50
2022-12-29T02:09:54.464Z,15.50
2022-12-29T02:12:25.163Z,17.15
2022-12-29T02:14:57.904Z,16.88
2022-12-29T02:17:44.248Z,18.23
2022-12-29T02:20:37.782Z,17.58
2022-12-29T02:23:31.700Z,17.10
2022-12-29T02:26:33.152Z,15.80
2022-12-29T02:29:37.656Z,18.30
2022-12-29T02:32:15.125Z,15.95
2022-12-29T02:34:51.871Z,15.80
2022-12-29T02:37:27.619Z,16.10
2022-12-29T02:40:05.954Z,16.02
2022-12-29T02:42:39.193Z,16.40
2022-12-29T02:45:15.122Z,17.10
2022-12-29T02:47:53.273Z,17.15
2022-12-29T02:50:25.556Z,15.70
2022-12-29T02:52:59.550Z,16.20
2022-12-29T02:55:27.031Z,16.45
2022-12-29T02:58:16.750Z,16.85
2022-12-29T03:00:58.370Z,16.73
2022-12-29T03:03:42.825Z,17.30
2022-12-29T03:06:29.852Z,16.65
2022-12-29T03:09:04.989Z,17.08
2022-12-29T03:12:11.861Z,17.13
2022-12-29T03:15:08.939Z,15.90
2022-12-29T03:17:47.667Z,17.20
2022-12-29T03:20:22.627Z,17.58
2022-12-29T03:22:55.569Z,18.48
2022-12-29T03:25:29.694Z,17.17
2022-12-29T03:28:03.238Z,17.35
2022-12-29T03:30:38.078Z,18.13
2022-12-29T03:33:12.420Z,16.85
2022-12-29T03:35:45.637Z,16.33
2022-12-29T03:38:18.996Z,18.50
2022-12-29T03:40:54.531Z,15.82
2022-12-29T03:43:25.277Z,17.73
2022-12-29T03:45:53.664Z,18.05
2022-12-29T03:48:21.952Z,16.33
2022-12-29T03:50:53.734Z,18.27
2022-12-29T03:53:22.344Z,17.30
2022-12-29T03:55:50.911Z,16.90
2022-12-29T03:58:19.055Z,15.95
2022-12-29T04:01:10.259Z,17.20
2022-12-29T04:03:40.497Z,18.08
2022-12-29T04:06:10.847Z,17.40
2022-12-29T04:09:02.252Z,18.80
2022-12-29T04:11:34.489Z,19.80
2022-12-29T04:14:05.022Z,19.50
2022-12-29T04:16:36.858Z,19.00
2022-12-29T04:19:07.018Z,19.15
2022-12-29T04:21:38.427Z,19.83
2022-12-29T04:24:08.409Z,21.13
2022-12-29T04:26:41.567Z,19.73
2022-12-29T04:29:26.260Z,21.13
2022-12-29T04:32:17.894Z,20.30
2022-12-29T04:34:50.772Z,20.45
2022-12-29T04:37:21.832Z,20.30
2022-12-29T04:39:50.093Z,19.88
2022-12-29T04:42:18.813Z,20.00
2022-12-29T04:44:47.839Z,21.10
2022-12-29T04:47:46.215Z,18.88
2022-12-29T04:50:41.892Z,21.50
2022-12-29T04:53:22.859Z,19.40
2022-12-29T04:55:52.305Z,21.23
2022-12-29T04:58:23.181Z,21.27
2022-12-29T05:00:53.621Z,19.85
2022-12-29T05:03:25.254Z,20.83
2022-12-29T05:05:55.602Z,21.65
2022-12-29T05:08:28.371Z,26.65
2022-12-29T05:10:59.515Z,29.48
2022-12-29T05:13:28.487Z,28.33
2022-12-29T05:15:56.976Z,23.70
2022-12-29T05:18:26.053Z,22.73
2022-12-29T05:20:54.442Z,21.90
2022-12-29T05:23:26.010Z,21.58
2022-12-29T05:26:01.544Z,24.08
2022-12-29T05:28:50.079Z,23.17
2022-12-29T05:31:21.603Z,22.90
2022-12-29T05:33:50.569Z,25.25
2022-12-29T05:36:19.286Z,20.38
2022-12-29T05:38:56.042Z,22.17
2022-12-29T05:41:25.401Z,23.10
2022-12-29T05:44:08.559Z,20.75
2022-12-29T05:47:12.493Z,22.05
2022-12-29T05:49:59.032Z,23.38
2022-12-29T05:52:46.211Z,20.23
2022-12-29T05:55:16.257Z,20.65
2022-12-29T05:57:46.443Z,20.05
2022-12-29T06:00:17.708Z,20.20
2022-12-29T06:02:48.550Z,19.83
2022-12-29T06:05:18.761Z,19.58
2022-12-29T06:07:47.447Z,19.25
2022-12-29T06:10:19.984Z,17.95
2022-12-29T06:13:06.544Z,16.63
2022-12-29T06:15:38.478Z,17.00
2022-12-29T06:18:13.741Z,18.05
2022-12-29T06:20:47.828Z,17.00
2022-12-29T06:23:19.582Z,17.58
2022-12-29T06:25:50.636Z,19.48
2022-12-29T06:28:19.309Z,18.55
2022-12-29T06:30:47.806Z,20.27
2022-12-29T06:33:16.219Z,20.13
2022-12-29T06:35:47.874Z,18.67
2022-12-29T06:38:16.660Z,19.05
2022-12-29T06:40:46.177Z,19.77
2022-12-29T06:43:34.924Z,20.90
2022-12-29T06:46:10.468Z,18.83
2022-12-29T06:48:38.748Z,20.00
2022-12-29T06:51:07.054Z,19.40
2022-12-29T06:53:35.399Z,21.13
2022-12-29T06:56:03.639Z,20.90
2022-12-29T06:58:33.385Z,21.95
2022-12-29T07:01:01.613Z,21.60
2022-12-29T07:03:29.901Z,20.60
2022-12-29T07:05:59.051Z,22.75
2022-12-29T07:08:27.329Z,22.67
2022-12-29T07:10:55.603Z,22.67
2022-12-29T07:13:24.109Z,22.45
2022-12-29T07:15:53.761Z,20.75
2022-12-29T07:18:21.949Z,22.33
2022-12-29T07:20:50.148Z,21.77
2022-12-29T07:23:18.548Z,19.90
2022-12-29T07:25:48.050Z,21.48
2022-12-29T07:28:16.317Z,19.48
2022-12-29T07:30:48.019Z,19.33
2022-12-29T07:33:17.627Z,19.58
2022-12-29T07:35:45.933Z,21.00
2022-12-29T07:38:14.168Z,20.73
2022-12-29T07:40:42.584Z,18.85
2022-12-29T07:43:10.903Z,19.02
2022-12-29T07:45:45.345Z,19.10
2022-12-29T07:48:13.665Z,19.35
2022-12-29T07:50:43.156Z,20.60
2022-12-29T07:53:11.405Z,18.10
2022-12-29T07:55:39.819Z,20.60
2022-12-29T07:58:08.240Z,18.20
2022-12-29T08:00:36.631Z,19.95
2022-12-29T08:03:05.345Z,18.00
2022-12-29T08:05:34.225Z,20.77
2022-12-29T08:08:03.901Z,19.23
2022-12-29T08:10:32.042Z,20.05
2022-12-29T08:13:00.477Z,19.30
2022-12-29T08:15:32.384Z,19.45
2022-12-29T08:18:01.048Z,18.85
2022-12-29T08:20:29.218Z,21.60
2022-12-29T08:22:57.505Z,21.63
2022-12-29T08:25:27.072Z,19.77
2022-12-29T08:27:55.220Z,20.42
2022-12-29T08:30:23.376Z,20.92
2022-12-29T08:32:52.354Z,20.05
2022-12-29T08:35:20.614Z,19.55
2022-12-29T08:37:48.918Z,19.40
2022-12-29T08:40:17.360Z,18.55
2022-12-29T08:42:47.278Z,20.50
2022-12-29T08:45:15.462Z,20.27
2022-12-29T08:47:43.923Z,19.00
2022-12-29T08:50:12.229Z,17.95
2022-12-29T08:52:40.521Z,19.95
2022-12-29T08:55:09.340Z,21.58
2022-12-29T08:57:38.373Z,20.25
2022-12-29T09:00:15.995Z,19.25
2022-12-29T09:02:44.512Z,21.85
2022-12-29T09:05:12.917Z,20.33
2022-12-29T09:07:42.125Z,23.27
2022-12-29T09:10:10.580Z,21.00
2022-12-29T09:12:39.102Z,20.77
2022-12-29T09:15:08.982Z,22.23
2022-12-29T09:17:47.395Z,23.15
2022-12-29T09:20:17.331Z,21.55
2022-12-29T09:22:46.429Z,20.10
2022-12-29T09:25:15.958Z,21.20
2022-12-29T09:27:44.270Z,20.40
2022-12-29T09:30:15.530Z,21.43
2022-12-29T09:32:53.400Z,21.70
2022-12-29T09:35:23.259Z,21.53
2022-12-29T09:37:52.267Z,23.50
2022-12-29T09:40:28.187Z,21.40
2022-12-29T09:43:22.093Z,20.93
2022-12-29T09:46:01.728Z,20.63
2022-12-29T09:48:36.753Z,19.70
2022-12-29T09:51:12.504Z,18.50
2022-12-29T09:53:46.579Z,17.30
2022-12-29T09:56:18.985Z,18.73
2022-12-29T09:58:54.085Z,18.90
2022-12-29T10:01:31.044Z,18.93
2022-12-29T10:04:04.239Z,22.73
2022-12-29T10:06:56.426Z,17.87
2022-12-29T10:09:36.918Z,23.07
2022-12-29T10:12:20.219Z,18.87
2022-12-29T10:15:00.803Z,19.30
2022-12-29T10:17:35.888Z,17.10
2022-12-29T10:20:28.910Z,17.07
2022-12-29T10:23:13.642Z,15.93
2022-12-29T10:25:44.434Z,17.30
2022-12-29T10:28:22.003Z,15.73
2022-12-29T10:30:53.413Z,16.60
2022-12-29T10:33:25.343Z,16.17
2022-12-29T10:35:55.277Z,15.27
2022-12-29T10:38:29.573Z,16.67
2022-12-29T10:41:02.914Z,18.20
2022-12-29T10:43:33.613Z,17.00
2022-12-29T10:46:06.742Z,16.80
2022-12-29T10:48:36.801Z,17.03
2022-12-29T10:51:10.244Z,15.60
2022-12-29T10:53:44.624Z,17.10
2022-12-29T10:56:23.385Z,16.03
2022-12-29T10:58:53.575Z,17.40
2022-12-29T11:01:22.338Z,17.13
2022-12-29T11:04:00.742Z,16.90
2022-12-29T11:06:31.394Z,17.40
2022-12-29T11:09:03.414Z,17.60
2022-12-29T11:11:37.652Z,18.70
2022-12-29T11:14:15.047Z,18.87
2022-12-29T11:16:45.627Z,16.53
2022-12-29T11:19:25.079Z,18.10
2022-12-29T11:21:55.606Z,16.03
2022-12-29T11:24:27.323Z,16.80
2022-12-29T11:26:58.583Z,17.73
2022-12-29T11:29:28.758Z,15.90
2022-12-29T11:32:00.126Z,16.33
2022-12-29T11:34:33.890Z,15.93
2022-12-29T11:37:07.352Z,16.50
2022-12-29T11:39:41.696Z,16.97
2022-12-29T11:42:17.889Z,16.97
2022-12-29T11:44:48.656Z,16.90
2022-12-29T11:47:28.090Z,17.73
2022-12-29T11:49:59.396Z,16.53
2022-12-29T11:52:32.148Z,18.50
2022-12-29T11:55:01.955Z,16.67
2022-12-29T11:57:31.188Z,16.53
2022-12-29T12:00:02.057Z,16.40
2022-12-29T12:02:50.339Z,17.20
2022-12-29T12:05:28.076Z,16.67
2022-12-29T12:08:02.506Z,17.07
2022-12-29T12:10:39.582Z,16.47
2022-12-29T12:13:18.201Z,16.90
2022-12-29T12:15:56.374Z,16.70
2022-12-29T12:18:36.253Z,16.77
2022-12-29T12:21:12.138Z,17.30
2022-12-29T12:23:56.822Z,16.20
2022-12-29T12:26:33.970Z,16.90
2022-12-29T12:29:10.625Z,16.20
2022-12-29T12:31:48.828Z,17.30
2022-12-29T12:34:22.791Z,16.70
2022-12-29T12:37:17.544Z,15.70
2022-12-29T12:40:02.444Z,17.20
2022-12-29T12:42:43.244Z,15.73
2022-12-29T12:45:34.072Z,18.80
2022-12-29T12:48:19.999Z,18.70
2022-12-29T12:50:57.981Z,18.90
2022-12-29T12:53:39.292Z,17.87
2022-12-29T12:56:24.863Z,19.10
2022-12-29T12:59:07.343Z,18.53
2022-12-29T13:01:44.416Z,18.60
2022-12-29T13:04:30.078Z,19.40
2022-12-29T13:07:06.467Z,17.80
2022-12-29T13:09:50.534Z,17.83
2022-12-29T13:12:34.456Z,18.53
2022-12-29T13:15:13.315Z,29.90
2022-12-29T13:17:48.321Z,44.20
2022-12-29T13:20:27.952Z,22.57
2022-12-29T13:23:04.648Z,25.97
2022-12-29T13:25:39.879Z,22.13
2022-12-29T13:28:17.889Z,18.50
2022-12-29T13:30:55.973Z,19.50
2022-12-29T13:33:32.420Z,18.37
2022-12-29T13:36:06.095Z,19.23
2022-12-29T13:38:39.788Z,18.20
2022-12-29T13:41:11.546Z,18.80
2022-12-29T13:43:44.422Z,17.37
2022-12-29T13:46:17.580Z,18.67
2022-12-29T13:48:51.155Z,18.50
2022-12-29T13:51:27.438Z,18.00
2022-12-29T13:54:20.064Z,18.37
2022-12-29T13:56:55.024Z,18.07
2022-12-29T13:59:41.649Z,18.75
2022-12-29T14:02:21.223Z,19.03
2022-12-29T14:05:01.658Z,18.43
2022-12-29T14:07:31.258Z,19.35
2022-12-29T14:09:59.960Z,19.00
2022-12-29T14:12:33.951Z,19.00
2022-12-29T14:15:16.576Z,20.13
2022-12-29T14:18:04.830Z,20.40
2022-12-29T14:20:33.878Z,18.65
2022-12-29T14:23:16.858Z,19.02
2022-12-29T14:26:00.715Z,19.50
2022-12-29T14:28:30.612Z,18.67
2022-12-29T14:31:01.308Z,19.48
2022-12-29T14:33:32.292Z,20.25
2022-12-29T14:36:22.524Z,19.65
2022-12-29T14:38:51.321Z,18.92
2022-12-29T14:41:32.511Z,19.13
2022-12-29T14:44:04.988Z,21.48
2022-12-29T14:46:57.597Z,20.13
2022-12-29T14:49:27.804Z,19.02
2022-12-29T14:52:06.615Z,28.05
2022-12-29T14:54:53.930Z,23.15
2022-12-29T14:57:30.916Z,21.48
2022-12-29T15:00:06.842Z,24.27
2022-12-29T15:02:42.084Z,25.10
2022-12-29T15:05:29.600Z,25.77
2022-12-29T15:07:59.223Z,21.35
2022-12-29T15:10:34.327Z,21.70
2022-12-29T15:13:07.064Z,24.52
2022-12-29T15:15:40.118Z,24.92
2022-12-29T15:18:24.719Z,25.63
2022-12-29T15:20:55.719Z,25.70
2022-12-29T15:23:24.188Z,26.40
2022-12-29T15:25:57.279Z,22.67
2022-12-29T15:28:26.271Z,24.73
2022-12-29T15:30:56.452Z,25.98
2022-12-29T15:33:29.626Z,26.45
2022-12-29T15:35:59.389Z,25.45
2022-12-29T15:38:34.660Z,25.77
2022-12-29T15:41:09.173Z,27.63
2022-12-29T15:43:51.612Z,26.85
2022-12-29T15:46:20.250Z,29.67
2022-12-29T15:48:50.193Z,32.13
2022-12-29T15:51:23.134Z,31.65
2022-12-29T15:53:53.294Z,30.65
2022-12-29T15:56:21.843Z,30.63
2022-12-29T15:58:51.953Z,32.22
2022-12-29T16:01:22.576Z,32.78
2022-12-29T16:03:53.706Z,29.88
2022-12-29T16:06:33.928Z,31.63
2022-12-29T16:09:05.527Z,29.77
2022-12-29T16:11:37.194Z,28.25
2022-12-29T16:14:10.138Z,29.08
2022-12-29T16:16:41.649Z,31.98
2022-12-29T16:19:16.499Z,33.33
2022-12-29T16:21:45.778Z,31.80
2022-12-29T16:24:17.853Z,31.27
2022-12-29T16:26:51.489Z,33.15
2022-12-29T16:29:22.808Z,32.38
2022-12-29T16:31:54.493Z,36.10
2022-12-29T16:34:27.819Z,32.83
2022-12-29T16:36:59.220Z,34.25
2022-12-29T16:39:34.838Z,36.83
2022-12-29T16:42:03.644Z,32.70
2022-12-29T16:44:33.371Z,34.25
2022-12-29T16:47:23.332Z,35.97
2022-12-29T16:49:55.517Z,33.78
2022-12-29T16:52:27.811Z,35.53
2022-12-29T16:55:02.019Z,35.58
2022-12-29T16:57:34.877Z,35.40
2022-12-29T17:00:07.486Z,37.85
2022-12-29T17:02:45.550Z,39.85
2022-12-29T17:05:17.231Z,39.78
2022-12-29T17:07:46.321Z,43.42
2022-12-29T17:10:15.771Z,44.25
2022-12-29T17:12:46.200Z,43.28
2022-12-29T17:15:17.597Z,41.45
2022-12-29T17:17:48.013Z,43.67
2022-12-29T17:20:20.740Z,40.60
2022-12-29T17:22:50.043Z,43.72
2022-12-29T17:25:20.987Z,44.33
2022-12-29T17:27:56.238Z,40.85
2022-12-29T17:30:31.217Z,40.45
2022-12-29T17:33:05.242Z,39.28
2022-12-29T17:35:34.901Z,37.88
2022-12-29T17:38:03.191Z,36.40
2022-12-29T17:40:34.510Z,41.30
2022-12-29T17:43:02.638Z,39.40
2022-12-29T17:45:33.091Z,40.00
2022-12-29T17:48:02.050Z,40.47
2022-12-29T17:50:32.654Z,44.33
2022-12-29T17:53:05.900Z,40.03
2022-12-29T17:55:38.401Z,45.30
2022-12-29T17:58:17.805Z,43.35
2022-12-29T18:00:46.544Z,46.22
2022-12-29T18:03:17.403Z,43.13
2022-12-29T18:05:46.326Z,44.92
2022-12-29T18:08:15.897Z,50.65
2022-12-29T18:10:44.557Z,50.90
2022-12-29T18:13:21.837Z,50.75
2022-12-29T18:15:50.403Z,55.80
2022-12-29T18:18:20.894Z,56.30
2022-12-29T18:20:51.219Z,58.20
2022-12-29T18:23:23.894Z,61.65
2022-12-29T18:25:56.852Z,69.13
2022-12-29T18:28:25.887Z,65.53
2022-12-29T18:30:54.512Z,63.22
2022-12-29T18:33:26.284Z,62.92
2022-12-29T18:35:58.697Z,71.03
2022-12-29T18:38:29.845Z,62.25
2022-12-29T18:40:59.112Z,64.40
2022-12-29T18:43:27.727Z,60.53
2022-12-29T18:45:55.938Z,63.00
2022-12-29T18:48:24.069Z,61.83
2022-12-29T18:50:53.349Z,65.25
2022-12-29T18:53:23.794Z,64.05
2022-12-29T18:55:57.481Z,72.68
2022-12-29T18:58:30.586Z,75.03
2022-12-29T19:01:02.232Z,74.38
2022-12-29T19:03:31.519Z,70.13
2022-12-29T19:06:00.235Z,69.03
2022-12-29T19:08:28.579Z,68.95
2022-12-29T19:10:58.270Z,69.47
2022-12-29T19:13:29.450Z,65.72
2022-12-29T19:15:58.707Z,66.25
2022-12-29T19:18:47.432Z,63.28
2022-12-29T19:21:20.013Z,66.45
2022-12-29T19:23:48.490Z,65.72
2022-12-29T19:26:29.921Z,65.38
2022-12-29T19:28:58.678Z,63.60
2022-12-29T19:31:26.935Z,67.75
2022-12-29T19:33:55.535Z,63.03
2022-12-29T19:36:24.399Z,65.38
2022-12-29T19:38:52.690Z,67.20
2022-12-29T19:41:22.261Z,64.82
2022-12-29T19:43:50.593Z,63.00
2022-12-29T19:46:20.506Z,61.30
2022-12-29T19:48:48.922Z,63.15
2022-12-29T19:51:18.399Z,64.07
2022-12-29T19:53:47.711Z,66.32
2022-12-29T19:56:18.366Z,62.65
2022-12-29T19:58:48.124Z,62.35
2022-12-29T20:01:18.427Z,66.43
2022-12-29T20:03:46.813Z,59.50
2022-12-29T20:06:15.497Z,64.53
2022-12-29T20:08:44.840Z,64.82
2022-12-29T20:11:14.593Z,64.93
2022-12-29T20:13:43.419Z,58.30
2022-12-29T20:16:15.338Z,59.70
2022-12-29T20:18:44.254Z,66.95
2022-12-29T20:21:14.935Z,70.05
2022-12-29T20:23:44.933Z,73.05
2022-12-29T20:26:16.496Z,79.00
2022-12-29T20:28:44.741Z,83.97
2022-12-29T20:31:20.475Z,84.53
2022-12-29T20:33:49.189Z,86.32
2022-12-29T20:36:20.477Z,83.47
2022-12-29T20:38:52.846Z,83.30
2022-12-29T20:41:22.813Z,84.85
2022-12-29T20:43:53.255Z,86.13
2022-12-29T20:46:28.094Z,85.13
2022-12-29T20:48:59.633Z,92.90
2022-12-29T20:51:28.634Z,91.78
2022-12-29T20:53:57.635Z,94.03
2022-12-29T20:56:29.180Z,95.55
2022-12-29T20:59:26.436Z,101.68
2022-12-29T21:01:47.326Z,99.30
2022-12-29T21:04:15.808Z,98.63
2022-12-29T21:06:44.033Z,95.70
2022-12-29T21:09:12.192Z,86.65
2022-12-29T21:11:42.206Z,84.45
2022-12-29T21:14:10.627Z,86.28
2022-12-29T21:16:38.923Z,88.32
2022-12-29T21:19:08.643Z,88.78
2022-12-29T21:21:36.928Z,85.72
2022-12-29T21:24:06.472Z,82.07
2022-12-29T21:26:35.153Z,80.63
2022-12-29T21:29:04.381Z,80.40
2022-12-29T21:31:34.572Z,84.68
2022-12-29T21:34:04.698Z,86.53
2022-12-29T21:36:35.233Z,87.78
2022-12-29T21:39:04.666Z,85.22
2022-12-29T21:41:33.713Z,87.15
2022-12-29T21:44:19.659Z,82.95
2022-12-29T21:46:48.853Z,82.28
2022-12-29T21:49:17.216Z,80.88
2022-12-29T21:51:51.823Z,79.50
2022-12-29T21:54:38.714Z,80.22
2022-12-29T21:57:07.214Z,78.90
2022-12-29T21:59:52.951Z,78.50
2022-12-29T22:02:40.867Z,75.68
2022-12-29T22:05:28.428Z,75.85
2022-12-29T22:08:15.587Z,76.57
2022-12-29T22:11:02.453Z,81.78
2022-12-29T22:13:32.882Z,84.63
2022-12-29T22:16:04.003Z,77.30
2022-12-29T22:18:32.347Z,79.97
2022-12-29T22:21:03.943Z,79.20
2022-12-29T22:23:33.628Z,78.47
2022-12-29T22:26:04.633Z,80.60
2022-12-29T22:28:33.445Z,80.97
2022-12-29T22:31:01.783Z,72.25
2022-12-29T22:33:29.990Z,68.88
2022-12-29T22:35:58.252Z,63.15
2022-12-29T22:38:26.479Z,62.38
2022-12-29T22:41:01.450Z,58.90
2022-12-29T22:43:30.677Z,63.17
2022-12-29T22:46:05.132Z,62.47
2022-12-29T22:48:34.196Z,61.97
2022-12-29T22:51:02.433Z,63.38
2022-12-29T22:53:31.112Z,55.15
2022-12-29T22:56:06.005Z,55.80
2022-12-29T22:58:34.232Z,49.90
2022-12-29T23:01:02.757Z,51.25
2022-12-29T23:03:31.027Z,50.00
2022-12-29T23:06:00.367Z,50.83
2022-12-29T23:08:29.181Z,49.75
2022-12-29T23:10:57.455Z,45.85
2022-12-29T23:13:27.294Z,48.20
2022-12-29T23:15:55.614Z,44.90
2022-12-29T23:18:23.822Z,41.95
2022-12-29T23:20:52.057Z,42.50
2022-12-29T23:23:48.143Z,46.20
2022-12-29T23:26:17.356Z,48.33
2022-12-29T23:28:47.138Z,45.08
2022-12-29T23:31:15.631Z,46.78
2022-12-29T23:33:43.959Z,46.17
2022-12-29T23:36:12.283Z,47.00
2022-12-29T23:38:40.453Z,46.15
2022-12-29T23:41:09.210Z,47.78
2022-12-29T23:43:37.613Z,48.75
2022-12-29T23:46:12.081Z,46.83
2022-12-29T23:48:40.290Z,48.28
2022-12-29T23:51:08.908Z,45.55
2022-12-29T23:53:39.185Z,46.88
2022-12-29T23:56:10.813Z,49.67
2022-12-29T23:58:39.411Z,47.92
